createdAt,value
2023-05-10T00:00:00.722Z,101032.20
2023-05-10T00:05:03.878Z,101027.00
2023-05-10T00:10:07.571Z,101028.20
2023-05-10T00:15:12.173Z,101028.20
2023-05-10T00:20:15.172Z,101028.20
2023-05-10T00:25:18.222Z,101022.80
2023-05-10T00:30:21.309Z,101018.20
2023-05-10T00:35:24.414Z,101014.80
2023-05-10T00:40:27.637Z,101008.00
2023-05-10T00:45:33.891Z,101007.40
2023-05-10T00:50:36.938Z,101010.20
2023-05-10T00:55:39.897Z,101008.20
2023-05-10T01:00:44.844Z,101017.20
2023-05-10T01:05:47.887Z,101016.40
2023-05-10T01:10:51.049Z,101014.40
2023-05-10T01:15:54.371Z,101004.00
2023-05-10T01:21:33.085Z,101004.00
2023-05-10T01:27:15.999Z,101000.00
2023-05-10T01:33:02.441Z,101002.40
2023-05-10T01:38:28.885Z,100999.20
2023-05-10T01:43:49.380Z,100997.40
2023-05-10T01:48:56.102Z,100996.00
2023-05-10T01:54:05.723Z,100995.20
2023-05-10T01:59:16.471Z,100993.40
2023-05-10T02:04:23.108Z,100991.00
2023-05-10T02:09:30.980Z,100997.20
2023-05-10T02:14:37.744Z,100997.40
2023-05-10T02:19:43.122Z,100990.00
2023-05-10T02:24:48.622Z,100994.20
2023-05-10T02:29:53.474Z,101002.40
2023-05-10T02:34:58.531Z,100999.00
2023-05-10T02:40:04.687Z,100993.20
2023-05-10T02:45:20.723Z,100991.80
2023-05-10T02:50:30.253Z,100984.20
2023-05-10T02:55:40.071Z,100985.00
2023-05-10T03:00:42.928Z,100984.60
2023-05-10T03:05:46.975Z,100985.00
2023-05-10T03:11:09.426Z,100987.80
2023-05-10T03:16:52.487Z,100985.00
2023-05-10T03:22:04.724Z,100983.20
2023-05-10T03:27:09.359Z,100982.00
2023-05-10T03:32:12.389Z,100973.40
2023-05-10T03:37:15.364Z,100976.00
2023-05-10T03:42:18.936Z,100971.00
2023-05-10T03:47:21.811Z,100974.00
2023-05-10T03:52:24.778Z,100972.80
2023-05-10T03:57:27.615Z,100978.00
2023-05-10T04:02:31.454Z,100975.00
2023-05-10T04:07:34.384Z,100983.80
2023-05-10T04:12:37.336Z,100979.60
2023-05-10T04:17:40.233Z,100979.20
2023-05-10T04:22:43.189Z,100983.40
2023-05-10T04:27:46.011Z,100980.20
2023-05-10T04:32:49.091Z,100987.20
2023-05-10T04:37:52.032Z,100989.80
2023-05-10T04:42:55.518Z,100984.00
2023-05-10T04:47:58.402Z,100982.60
2023-05-10T04:53:01.529Z,100977.20
2023-05-10T04:58:04.352Z,100979.40
2023-05-10T05:10:09.896Z,100980.40
2023-05-10T05:15:12.821Z,100975.80
2023-05-10T05:20:15.933Z,100975.40
2023-05-10T05:25:19.310Z,100974.60
2023-05-10T05:30:22.195Z,100981.20
2023-05-10T05:35:25.464Z,100977.20
2023-05-10T05:40:28.324Z,100978.20
2023-05-10T05:45:31.150Z,100977.80
2023-05-10T05:50:34.044Z,100981.60
2023-05-10T05:55:36.936Z,100982.40
2023-05-10T06:00:39.892Z,100981.20
2023-05-10T06:05:43.111Z,100970.80
2023-05-10T06:10:46.719Z,100978.60
2023-05-10T06:15:49.546Z,100978.40
2023-05-10T06:20:52.837Z,100978.00
2023-05-10T06:25:55.884Z,100981.60
2023-05-10T06:30:58.894Z,100983.20
2023-05-10T06:36:01.914Z,100979.00
2023-05-10T06:41:04.860Z,100980.40
2023-05-10T06:46:08.436Z,100976.20
2023-05-10T06:51:11.615Z,100979.80
2023-05-10T06:56:15.177Z,100979.60
2023-05-10T07:01:18.168Z,100972.20
2023-05-10T07:06:32.389Z,100974.40
2023-05-10T07:11:37.311Z,100969.00
2023-05-10T07:16:40.312Z,100975.20
2023-05-10T07:21:44.430Z,100979.40
2023-05-10T07:26:47.283Z,100976.40
2023-05-10T07:31:50.916Z,100974.00
2023-05-10T07:36:54.182Z,100970.00
2023-05-10T07:41:57.564Z,100977.00
2023-05-10T07:47:00.728Z,100984.20
2023-05-10T07:52:05.579Z,100972.60
2023-05-10T07:57:10.549Z,100970.80
2023-05-10T08:02:13.562Z,100968.20
2023-05-10T08:07:16.640Z,100971.00
2023-05-10T08:12:19.848Z,100963.40
2023-05-10T08:17:24.686Z,100970.60
2023-05-10T08:22:29.144Z,100970.40
2023-05-10T08:27:32.739Z,100961.80
2023-05-10T08:32:36.446Z,100964.20
2023-05-10T08:37:40.619Z,100959.00
2023-05-10T08:42:56.513Z,100967.80
2023-05-10T08:48:03.202Z,100963.00
2023-05-10T08:53:11.952Z,100974.60
2023-05-10T08:58:15.574Z,100970.20
2023-05-10T09:03:19.164Z,100967.60
2023-05-10T09:08:26.431Z,100960.80
2023-05-10T09:13:29.839Z,100963.80
2023-05-10T09:18:33.145Z,100966.20
2023-05-10T09:23:36.177Z,100963.40
2023-05-10T09:28:57.734Z,100960.20
2023-05-10T09:34:02.493Z,100958.00
2023-05-10T09:39:05.799Z,100948.20
2023-05-10T09:44:10.388Z,100953.40
2023-05-10T09:49:16.023Z,100944.20
2023-05-10T09:54:38.734Z,100947.40
2023-05-10T09:59:52.313Z,100935.80
2023-05-10T10:05:09.883Z,100935.60
2023-05-10T10:10:42.472Z,100922.00
2023-05-10T10:15:52.958Z,100911.80
2023-05-10T10:21:14.086Z,100905.60
2023-05-10T10:26:35.301Z,100902.00
2023-05-10T10:32:24.931Z,100897.60
2023-05-10T10:43:29.573Z,100884.40
2023-05-10T10:49:18.670Z,100871.40
2023-05-10T10:54:29.518Z,100882.60
2023-05-10T10:59:32.718Z,100870.00
2023-05-10T11:04:47.687Z,100867.80
2023-05-10T11:09:50.933Z,100862.40
2023-05-10T11:14:59.074Z,100863.40
2023-05-10T11:20:16.253Z,100854.20
2023-05-10T11:25:21.446Z,100852.80
2023-05-10T11:30:25.688Z,100853.80
2023-05-10T11:35:29.273Z,100842.60
2023-05-10T11:40:32.153Z,100836.60
2023-05-10T11:45:36.158Z,100829.80
2023-05-10T11:50:39.322Z,100820.80
2023-05-10T11:55:42.333Z,100824.00
2023-05-10T12:00:46.479Z,100821.00
2023-05-10T12:05:49.674Z,100832.80
2023-05-10T12:10:54.540Z,100817.40
2023-05-10T12:16:00.892Z,100826.40
2023-05-10T12:21:05.465Z,100828.40
2023-05-10T12:26:11.586Z,100819.80
2023-05-10T12:31:14.889Z,100818.60
2023-05-10T12:36:24.194Z,100825.80
2023-05-10T12:41:27.244Z,100818.60
2023-05-10T12:46:30.648Z,100829.20
2023-05-10T12:51:33.831Z,100818.40
2023-05-10T12:56:38.167Z,100812.40
2023-05-10T13:01:42.557Z,100821.00
2023-05-10T13:06:47.425Z,100806.00
2023-05-10T13:11:50.822Z,100815.40
2023-05-10T13:16:54.936Z,100815.00
2023-05-10T13:21:58.259Z,100805.60
2023-05-10T13:27:01.745Z,100805.60
2023-05-10T13:32:05.297Z,100791.20
2023-05-10T13:37:08.359Z,100791.80
2023-05-10T13:42:12.119Z,100795.80
2023-05-10T13:47:18.129Z,100784.20
2023-05-10T13:52:21.269Z,100792.20
2023-05-10T13:57:24.977Z,100792.60
2023-05-10T14:02:28.703Z,100784.60
2023-05-10T14:07:31.892Z,100789.60
2023-05-10T14:12:35.224Z,100779.20
2023-05-10T14:17:38.673Z,100777.60
2023-05-10T14:22:41.986Z,100777.80
2023-05-10T14:27:45.293Z,100779.80
2023-05-10T14:32:48.477Z,100777.00
2023-05-10T14:37:52.502Z,100773.80
2023-05-10T14:42:57.824Z,100782.00
2023-05-10T14:48:02.134Z,100784.60
2023-05-10T14:53:05.105Z,100773.60
2023-05-10T14:58:08.010Z,100767.20
2023-05-10T15:03:11.107Z,100773.40
2023-05-10T15:08:14.349Z,100769.00
2023-05-10T15:13:17.561Z,100769.40
2023-05-10T15:18:20.591Z,100774.20
2023-05-10T15:23:23.965Z,100766.80
2023-05-10T15:28:26.851Z,100771.20
2023-05-10T15:33:29.777Z,100763.80
2023-05-10T15:38:32.626Z,100770.20
2023-05-10T15:43:35.458Z,100766.60
2023-05-10T15:48:40.198Z,100768.60
2023-05-10T15:53:56.367Z,100763.80
2023-05-10T15:59:01.863Z,100761.20
2023-05-10T16:04:04.852Z,100767.00
2023-05-10T16:09:08.723Z,100765.60
2023-05-10T16:14:11.720Z,100760.00
2023-05-10T16:19:16.042Z,100763.00
2023-05-10T16:24:19.065Z,100754.20
2023-05-10T16:29:22.013Z,100762.20
2023-05-10T16:34:25.452Z,100757.60
2023-05-10T16:39:28.375Z,100760.20
2023-05-10T16:44:31.460Z,100765.40
2023-05-10T16:54:39.613Z,100771.20
2023-05-10T16:59:42.727Z,100772.60
2023-05-10T17:04:46.237Z,100775.00
2023-05-10T17:09:49.172Z,100773.80
2023-05-10T17:14:55.327Z,100777.00
2023-05-10T17:19:58.810Z,100776.80
2023-05-10T17:25:01.869Z,100787.80
2023-05-10T17:30:06.048Z,100792.60
2023-05-10T17:35:09.174Z,100794.20
2023-05-10T17:40:12.807Z,100801.20
2023-05-10T17:45:16.729Z,100803.20
2023-05-10T17:50:20.003Z,100810.60
2023-05-10T17:55:22.835Z,100812.80
2023-05-10T18:00:25.969Z,100818.60
2023-05-10T18:05:28.960Z,100820.80
2023-05-10T18:10:32.424Z,100830.80
2023-05-10T18:15:35.477Z,100830.40
2023-05-10T18:20:38.402Z,100821.00
2023-05-10T18:25:41.349Z,100829.80
2023-05-10T18:30:44.309Z,100834.80
2023-05-10T18:35:47.453Z,100841.40
2023-05-10T18:40:51.179Z,100844.40
2023-05-10T18:45:54.401Z,100851.20
2023-05-10T18:50:57.300Z,100861.40
2023-05-10T18:56:00.263Z,100862.00
2023-05-10T19:01:03.337Z,100859.40
2023-05-10T19:06:06.428Z,100862.80
2023-05-10T19:11:09.362Z,100862.20
2023-05-10T19:16:17.076Z,100865.00
2023-05-10T19:21:21.378Z,100872.40
2023-05-10T19:26:24.463Z,100873.60
2023-05-10T19:31:27.850Z,100868.00
2023-05-10T19:36:33.272Z,100867.60
2023-05-10T19:41:36.211Z,100869.80
2023-05-10T19:46:39.178Z,100877.20
2023-05-10T19:51:42.179Z,100882.20
2023-05-10T19:56:44.993Z,100883.00
2023-05-10T20:01:47.835Z,100890.60
2023-05-10T20:06:50.719Z,100900.00
2023-05-10T20:11:53.670Z,100895.20
2023-05-10T20:16:56.818Z,100902.40
2023-05-10T20:21:59.927Z,100901.80
2023-05-10T20:27:04.609Z,100904.00
2023-05-10T20:32:07.525Z,100903.00
2023-05-10T20:37:10.403Z,100906.20
2023-05-10T20:42:13.233Z,100913.00
2023-05-10T20:47:16.987Z,100910.20
2023-05-10T20:52:20.183Z,100907.00
2023-05-10T20:57:24.846Z,100911.20
2023-05-10T21:02:27.834Z,100912.20
2023-05-10T21:07:32.890Z,100910.40
2023-05-10T21:12:35.827Z,100915.60
2023-05-10T21:17:38.656Z,100915.00
2023-05-10T21:22:41.534Z,100914.40
2023-05-10T21:27:44.636Z,100917.40
2023-05-10T21:32:47.640Z,100920.20
2023-05-10T21:37:50.461Z,100917.60
2023-05-10T21:42:53.375Z,100923.80
2023-05-10T21:47:56.486Z,100927.40
2023-05-10T21:52:59.768Z,100926.00
2023-05-10T21:58:02.635Z,100924.20
2023-05-10T22:03:05.864Z,100928.20
2023-05-10T22:08:08.978Z,100932.80
2023-05-10T22:13:11.803Z,100941.80
2023-05-10T22:18:14.678Z,100942.80
2023-05-10T22:23:17.487Z,100941.60
2023-05-10T22:28:20.462Z,100950.20
2023-05-10T22:33:23.288Z,100948.20
2023-05-10T22:38:26.238Z,100950.40
2023-05-10T22:43:29.157Z,100954.40
2023-05-10T22:48:34.594Z,100958.20
2023-05-10T22:53:37.566Z,100962.80
2023-05-10T22:58:40.584Z,100962.80
2023-05-10T23:03:43.443Z,100959.40
2023-05-10T23:08:46.223Z,100956.20
2023-05-10T23:13:49.288Z,100963.20
2023-05-10T23:18:52.168Z,100963.00
2023-05-10T23:23:55.061Z,100963.20
2023-05-10T23:28:57.879Z,100961.20
2023-05-10T23:34:00.699Z,100962.20
2023-05-10T23:39:03.627Z,100959.40
2023-05-10T23:44:06.709Z,100961.40
2023-05-10T23:49:09.588Z,100974.80
2023-05-10T23:54:12.472Z,100971.80
2023-05-10T23:59:15.498Z,100965.60
